Flight Track Log - Related Links

Times and Time Zones

All times are in EDT time to prevent confusion due to time zone crossing. See the N922MH flight status page for this flight to view local times or setup timezone preferences in your user account.

Time Position Orientation Groundspeed Altitude Reporting Facility
EDT Latitude Longitude Course Direction KTS MPH feet Rate Location/Type
Tue 09:31:52 PM 42.4667 -71.2667 200° South 111 128 1,000  Level KA90
Tue 09:33:10 PM 42.4333 -71.2833 200° South 116 133 2,800 1,304 Climbing KA90
Tue 09:34:10 PM 42.4167 -71.3167 236° Southwest 112 129 4,000 1,050 Climbing KA90
Tue 09:35:10 PM 42.4000 -71.3500 236° Southwest 118 136 4,900 750 Climbing KA90
Tue 09:36:10 PM 42.3667 -71.3833 216° Southwest 146 168 5,500 500 Climbing KA90
Tue 09:37:10 PM 42.3333 -71.4333 228° Southwest 152 175 5,900 323 Climbing KA90
Tue 09:37:43 PM 42.3169 -71.4575 227° Southwest 153 176 6,000 128 Climbing Boston Center
Tue 09:38:44 PM 42.2881 -71.5000 227° Southwest 164 189 6,100  Climbing Boston Center
Tue 09:39:44 PM 42.2553 -71.5481 227° Southwest 168 193 6,000 -50 Descending Boston Center
Tue 09:40:45 PM 42.2369 -71.6044 246° West 163 188 6,000  Level Boston Center
Tue 09:41:45 PM 42.2206 -71.6608 249° West 163 188 6,000  Level Boston Center
Tue 09:42:46 PM 42.2022 -71.7169 246° West 164 189 6,000  Level Boston Center
Tue 09:43:47 PM 42.1711 -71.7622 227° Southwest 166 191 6,000  Level Boston Center
Tue 09:44:47 PM 42.1361 -71.8075 224° Southwest 165 190 6,000  Level Boston Center
Tue 09:45:48 PM 42.1008 -71.8497 222° Southwest 165 190 6,000  Level Boston Center
Tue 09:46:55 PM 42.0697 -71.8975 229° Southwest 162 186 6,000  Level Boston Center
Tue 09:47:55 PM 42.0367 -71.9397 223° Southwest 161 185 6,000  Level Boston Center
Tue 09:48:56 PM 42.0036 -71.9847 225° Southwest 159 183 6,000 49 Level Boston Center
Tue 09:49:57 PM 41.9725 -72.0269 225° Southwest 161 185 6,100 50 Climbing Boston Center
Tue 09:50:57 PM 41.9414 -72.0717 227° Southwest 162 186 6,100  Level Boston Center
Tue 09:52:04 PM 41.9081 -72.1194 227° Southwest 160 184 6,100 -47 Level Boston Center
Tue 09:53:05 PM 41.8750 -72.1642 225° Southwest 163 188 6,000  Descending Boston Center
Tue 09:54:05 PM 41.8417 -72.2089 225° Southwest 161 185 6,100 50 Climbing Boston Center
Tue 09:55:06 PM 41.8125 -72.2533 229° Southwest 163 188 6,100  Level Boston Center
Tue 09:56:06 PM 41.7772 -72.2953 222° Southwest 164 189 6,100 -50 Level Boston Center
Tue 09:57:07 PM 41.7481 -72.3400 229° Southwest 163 188 6,000  Descending Boston Center
Tue 09:58:08 PM 41.7147 -72.3817 223° Southwest 162 186 6,100  Climbing Boston Center
Tue 09:59:08 PM 41.6836 -72.4261 227° Southwest 162 186 6,000  Descending Boston Center
Tue 10:00:09 PM 41.6500 -72.4678 223° Southwest 161 185 6,100 37 Climbing Boston Center
Tue 10:01:52 PM 41.6000 -72.5333 224° Southwest 160 184 6,100  Level New York TRACON
Tue 10:02:46 PM 41.5667 -72.5667 217° Southwest 160 184 6,100  Level New York TRACON
Tue 10:03:46 PM 41.5333 -72.6167 228° Southwest 157 181 6,100  Level New York TRACON
Tue 10:04:46 PM 41.5000 -72.6500 217° Southwest 158 182 6,100  Level New York TRACON
Tue 10:05:46 PM 41.4833 -72.7000 246° West 162 186 6,100  Level New York TRACON
Tue 10:06:46 PM 41.4500 -72.7500 228° Southwest 160 184 6,100  Level New York TRACON
Tue 10:07:46 PM 41.4167 -72.7833 217° Southwest 161 185 6,100  Level New York TRACON
Tue 10:08:46 PM 41.3833 -72.8333 228° Southwest 163 188 6,100  Level New York TRACON
Tue 10:09:46 PM 41.3500 -72.8667 217° Southwest 158 182 6,100 -200 Level New York TRACON
Tue 10:10:46 PM 41.3333 -72.9333 252° West 170 196 5,700 -450 Descending New York TRACON
Tue 10:11:46 PM 41.3167 -72.9833 246° West 174 200 5,200 -500 Descending New York TRACON
Tue 10:12:46 PM 41.3000 -73.0500 252° West 172 198 4,700 -500 Descending New York TRACON
Tue 10:13:46 PM 41.2833 -73.1000 246° West 169 194 4,200 -300 Descending New York TRACON
Tue 10:14:46 PM 41.2833 -73.1667 270° West 165 190 4,100 -286 Descending New York TRACON
Tue 10:15:52 PM 41.2667 -73.2333 252° West 167 192 3,600 -500 Descending New York TRACON
Tue 10:16:46 PM 41.2500 -73.2833 246° West 157 181 3,100 -263 Descending New York TRACON
Tue 10:17:46 PM 41.2333 -73.3333 246° West 142 163 3,100  Level New York TRACON
Tue 10:18:52 PM 41.2167 -73.3833 246° West 136 157 3,100 -48 Level New York TRACON
Tue 10:19:52 PM 41.2167 -73.4333 270° West 133 153 3,000 -300 Descending New York TRACON
Tue 10:20:52 PM 41.2000 -73.4833 246° West 148 170 2,500 -450 Descending New York TRACON
Tue 10:21:52 PM 41.2000 -73.5333 270° West 153 176 2,100 -211 Descending New York TRACON
Tue 10:22:46 PM 41.2000 -73.5833 270° West 138 159 2,100  Level New York TRACON
Tue 10:23:46 PM 41.2000 -73.6333 270° West 134 154 2,100  Level New York TRACON
Tue 10:24:46 PM 41.2000 -73.6833 270° West 133 153 2,100 -50 Level New York TRACON
Tue 10:25:46 PM 41.2000 -73.7333 270° West 133 153 2,000 -100 Descending New York TRACON

Login

Don't have an account? Register now (free) for customized features, flight alerts, and more!